sensor_id;sensor_type;location;lat;lon;timestamp;pressure;altitude;pressure_sealevel;temperature;humidity
62055;BME280;48653;51.742;-1.256;2023-08-24T00:01:49;100942.73;;;20.54;47.55
62055;BME280;48653;51.742;-1.256;2023-08-24T00:04:14;100936.24;;;19.93;47.51
62055;BME280;48653;51.742;-1.256;2023-08-24T00:06:41;100931.41;;;19.92;47.00
62055;BME280;48653;51.742;-1.256;2023-08-24T00:09:04;100927.92;;;20.11;47.30
62055;BME280;48653;51.742;-1.256;2023-08-24T00:11:30;100927.74;;;19.81;46.50
62055;BME280;48653;51.742;-1.256;2023-08-24T00:13:55;100934.08;;;20.01;46.46
62055;BME280;48653;51.742;-1.256;2023-08-24T00:16:20;100944.69;;;20.03;46.92
62055;BME280;48653;51.742;-1.256;2023-08-24T00:18:45;100947.80;;;19.81;47.17
62055;BME280;48653;51.742;-1.256;2023-08-24T00:21:10;100948.51;;;19.84;46.96
62055;BME280;48653;51.742;-1.256;2023-08-24T00:23:35;100947.06;;;20.08;47.27
62055;BME280;48653;51.742;-1.256;2023-08-24T00:26:00;100945.33;;;19.49;47.26
62055;BME280;48653;51.742;-1.256;2023-08-24T00:28:26;100947.47;;;20.01;47.75
62055;BME280;48653;51.742;-1.256;2023-08-24T00:30:51;100951.72;;;19.56;47.08
62055;BME280;48653;51.742;-1.256;2023-08-24T00:33:17;100955.38;;;19.72;46.52
62055;BME280;48653;51.742;-1.256;2023-08-24T00:35:42;100951.15;;;19.74;45.96
62055;BME280;48653;51.742;-1.256;2023-08-24T00:38:06;100950.54;;;19.85;45.74
62055;BME280;48653;51.742;-1.256;2023-08-24T00:40:31;100961.91;;;19.81;46.55
62055;BME280;48653;51.742;-1.256;2023-08-24T00:42:58;100961.97;;;19.87;47.08
62055;BME280;48653;51.742;-1.256;2023-08-24T00:45:23;100957.38;;;19.84;47.60
62055;BME280;48653;51.742;-1.256;2023-08-24T00:47:47;100957.72;;;19.89;46.29
62055;BME280;48653;51.742;-1.256;2023-08-24T00:50:13;100952.68;;;20.06;47.05
62055;BME280;48653;51.742;-1.256;2023-08-24T00:52:39;100947.02;;;19.81;45.15
62055;BME280;48653;51.742;-1.256;2023-08-24T00:55:04;100942.61;;;20.05;46.05
62055;BME280;48653;51.742;-1.256;2023-08-24T00:57:30;100931.86;;;20.14;45.49
62055;BME280;48653;51.742;-1.256;2023-08-24T00:59:54;100930.89;;;19.80;46.36
62055;BME280;48653;51.742;-1.256;2023-08-24T01:02:20;100935.61;;;19.74;46.68
62055;BME280;48653;51.742;-1.256;2023-08-24T01:04:46;100936.14;;;19.41;46.00
62055;BME280;48653;51.742;-1.256;2023-08-24T01:07:09;100930.51;;;19.89;46.30
62055;BME280;48653;51.742;-1.256;2023-08-24T01:09:35;100921.15;;;19.94;46.62
62055;BME280;48653;51.742;-1.256;2023-08-24T01:12:04;100903.44;;;19.86;45.77
62055;BME280;48653;51.742;-1.256;2023-08-24T01:14:33;100900.27;;;19.51;48.56
62055;BME280;48653;51.742;-1.256;2023-08-24T01:16:51;100899.82;;;19.68;47.21
62055;BME280;48653;51.742;-1.256;2023-08-24T01:19:25;100902.47;;;19.97;46.66
62055;BME280;48653;51.742;-1.256;2023-08-24T01:21:42;100895.22;;;19.90;47.40
62055;BME280;48653;51.742;-1.256;2023-08-24T01:24:12;100885.89;;;19.62;47.06
62055;BME280;48653;51.742;-1.256;2023-08-24T01:26:32;100879.25;;;19.97;46.34
62055;BME280;48653;51.742;-1.256;2023-08-24T01:29:02;100871.36;;;19.75;45.61
62055;BME280;48653;51.742;-1.256;2023-08-24T01:31:25;100860.81;;;19.99;47.06
62055;BME280;48653;51.742;-1.256;2023-08-24T01:33:48;100845.56;;;19.87;46.48
62055;BME280;48653;51.742;-1.256;2023-08-24T01:36:15;100828.84;;;19.81;46.50
62055;BME280;48653;51.742;-1.256;2023-08-24T01:38:39;100815.57;;;20.10;46.83
62055;BME280;48653;51.742;-1.256;2023-08-24T01:41:11;100813.83;;;19.86;46.99
62055;BME280;48653;51.742;-1.256;2023-08-24T01:43:30;100817.20;;;19.75;47.43
62055;BME280;48653;51.742;-1.256;2023-08-24T01:45:55;100821.08;;;19.40;47.98
62055;BME280;48653;51.742;-1.256;2023-08-24T01:48:20;100824.74;;;19.57;48.83
62055;BME280;48653;51.742;-1.256;2023-08-24T01:50:45;100823.61;;;19.29;49.11
62055;BME280;48653;51.742;-1.256;2023-08-24T01:53:10;100816.43;;;19.65;49.17
62055;BME280;48653;51.742;-1.256;2023-08-24T01:55:34;100813.98;;;19.35;49.26
62055;BME280;48653;51.742;-1.256;2023-08-24T01:58:00;100821.76;;;19.38;49.14
62055;BME280;48653;51.742;-1.256;2023-08-24T02:00:25;100826.51;;;19.33;49.14
62055;BME280;48653;51.742;-1.256;2023-08-24T02:02:51;100825.74;;;19.49;49.50
62055;BME280;48653;51.742;-1.256;2023-08-24T02:05:16;100826.69;;;19.24;49.95
62055;BME280;48653;51.742;-1.256;2023-08-24T02:07:41;100826.08;;;19.19;49.86
62055;BME280;48653;51.742;-1.256;2023-08-24T02:10:07;100820.07;;;18.88;49.85
62055;BME280;48653;51.742;-1.256;2023-08-24T02:12:32;100812.40;;;19.18;49.22
62055;BME280;48653;51.742;-1.256;2023-08-24T02:14:56;100815.53;;;19.01;48.30
62055;BME280;48653;51.742;-1.256;2023-08-24T02:17:22;100822.11;;;18.87;48.80
62055;BME280;48653;51.742;-1.256;2023-08-24T02:19:47;100820.26;;;18.85;48.49
62055;BME280;48653;51.742;-1.256;2023-08-24T02:22:12;100817.00;;;18.93;49.57
62055;BME280;48653;51.742;-1.256;2023-08-24T02:24:37;100815.42;;;18.74;48.90
62055;BME280;48653;51.742;-1.256;2023-08-24T02:29:27;100806.72;;;18.76;48.99
62055;BME280;48653;51.742;-1.256;2023-08-24T02:31:53;100796.48;;;18.67;48.13
62055;BME280;48653;51.742;-1.256;2023-08-24T02:34:18;100788.95;;;18.67;48.93
62055;BME280;48653;51.742;-1.256;2023-08-24T02:36:43;100788.11;;;18.76;47.28
62055;BME280;48653;51.742;-1.256;2023-08-24T02:39:08;100787.85;;;18.95;48.30
62055;BME280;48653;51.742;-1.256;2023-08-24T02:41:34;100785.94;;;18.66;49.21
62055;BME280;48653;51.742;-1.256;2023-08-24T02:43:59;100786.40;;;18.61;48.39
62055;BME280;48653;51.742;-1.256;2023-08-24T02:46:24;100783.51;;;19.16;49.01
62055;BME280;48653;51.742;-1.256;2023-08-24T02:48:49;100780.07;;;18.69;47.12
62055;BME280;48653;51.742;-1.256;2023-08-24T02:51:14;100783.14;;;18.87;47.52
62055;BME280;48653;51.742;-1.256;2023-08-24T02:53:39;100774.15;;;19.03;47.85
62055;BME280;48653;51.742;-1.256;2023-08-24T02:56:04;100765.54;;;18.95;48.91
62055;BME280;48653;51.742;-1.256;2023-08-24T03:00:55;100762.16;;;18.70;48.54
62055;BME280;48653;51.742;-1.256;2023-08-24T03:03:20;100759.02;;;18.88;48.55
62055;BME280;48653;51.742;-1.256;2023-08-24T03:05:52;100762.82;;;18.96;47.69
62055;BME280;48653;51.742;-1.256;2023-08-24T03:08:10;100778.41;;;19.01;47.90
62055;BME280;48653;51.742;-1.256;2023-08-24T03:10:36;100785.86;;;18.76;49.06
62055;BME280;48653;51.742;-1.256;2023-08-24T03:13:01;100789.09;;;18.54;48.77
62055;BME280;48653;51.742;-1.256;2023-08-24T03:15:26;100794.60;;;18.52;48.10
62055;BME280;48653;51.742;-1.256;2023-08-24T03:17:51;100804.80;;;18.52;48.66
62055;BME280;48653;51.742;-1.256;2023-08-24T03:20:16;100809.10;;;18.86;48.85
62055;BME280;48653;51.742;-1.256;2023-08-24T03:22:41;100804.31;;;18.84;48.02
62055;BME280;48653;51.742;-1.256;2023-08-24T03:25:07;100795.63;;;19.02;47.85
62055;BME280;48653;51.742;-1.256;2023-08-24T03:27:31;100787.84;;;18.64;48.98
62055;BME280;48653;51.742;-1.256;2023-08-24T03:29:57;100783.06;;;18.65;49.25
62055;BME280;48653;51.742;-1.256;2023-08-24T03:32:21;100771.10;;;18.59;49.35
62055;BME280;48653;51.742;-1.256;2023-08-24T03:34:47;100768.18;;;18.62;49.08
62055;BME280;48653;51.742;-1.256;2023-08-24T03:37:12;100766.17;;;18.65;49.58
62055;BME280;48653;51.742;-1.256;2023-08-24T03:39:37;100760.28;;;18.72;49.20
62055;BME280;48653;51.742;-1.256;2023-08-24T03:42:02;100750.86;;;18.64;49.46
62055;BME280;48653;51.742;-1.256;2023-08-24T03:44:28;100754.77;;;18.62;48.81
62055;BME280;48653;51.742;-1.256;2023-08-24T03:46:52;100763.82;;;18.84;49.42
62055;BME280;48653;51.742;-1.256;2023-08-24T03:49:17;100767.80;;;18.61;49.01
62055;BME280;48653;51.742;-1.256;2023-08-24T03:51:42;100759.38;;;18.49;50.20
62055;BME280;48653;51.742;-1.256;2023-08-24T03:54:07;100752.50;;;18.74;49.94
62055;BME280;48653;51.742;-1.256;2023-08-24T03:56:32;100757.52;;;18.75;50.36
62055;BME280;48653;51.742;-1.256;2023-08-24T03:58:57;100755.48;;;18.21;49.24
62055;BME280;48653;51.742;-1.256;2023-08-24T04:01:22;100748.58;;;18.63;50.02
62055;BME280;48653;51.742;-1.256;2023-08-24T04:03:47;100747.23;;;18.52;49.36
62055;BME280;48653;51.742;-1.256;2023-08-24T04:06:12;100750.27;;;18.68;49.93
62055;BME280;48653;51.742;-1.256;2023-08-24T04:08:38;100748.25;;;18.66;49.50
62055;BME280;48653;51.742;-1.256;2023-08-24T04:11:03;100750.18;;;18.65;50.06
62055;BME280;48653;51.742;-1.256;2023-08-24T04:13:28;100752.29;;;18.39;49.32
62055;BME280;48653;51.742;-1.256;2023-08-24T04:15:53;100760.02;;;18.63;49.59
62055;BME280;48653;51.742;-1.256;2023-08-24T04:18:18;100754.85;;;18.42;48.74
62055;BME280;48653;51.742;-1.256;2023-08-24T04:20:44;100747.82;;;19.08;49.47
62055;BME280;48653;51.742;-1.256;2023-08-24T04:23:09;100743.95;;;18.62;49.82
62055;BME280;48653;51.742;-1.256;2023-08-24T04:25:34;100745.66;;;18.44;50.33
62055;BME280;48653;51.742;-1.256;2023-08-24T04:27:59;100743.37;;;18.54;50.12
62055;BME280;48653;51.742;-1.256;2023-08-24T04:30:25;100731.55;;;18.34;49.26
62055;BME280;48653;51.742;-1.256;2023-08-24T04:32:50;100726.94;;;18.56;48.97
62055;BME280;48653;51.742;-1.256;2023-08-24T04:35:15;100728.11;;;18.79;48.17
62055;BME280;48653;51.742;-1.256;2023-08-24T04:37:39;100710.38;;;18.83;47.57
62055;BME280;48653;51.742;-1.256;2023-08-24T04:40:05;100702.87;;;18.74;48.08
62055;BME280;48653;51.742;-1.256;2023-08-24T04:42:29;100704.20;;;18.73;49.36
62055;BME280;48653;51.742;-1.256;2023-08-24T04:44:54;100696.37;;;18.93;49.82
62055;BME280;48653;51.742;-1.256;2023-08-24T04:47:20;100699.27;;;18.18;50.69
62055;BME280;48653;51.742;-1.256;2023-08-24T04:49:45;100698.29;;;18.69;49.80
62055;BME280;48653;51.742;-1.256;2023-08-24T04:52:11;100704.19;;;18.28;49.93
62055;BME280;48653;51.742;-1.256;2023-08-24T04:54:36;100706.68;;;18.61;49.70
62055;BME280;48653;51.742;-1.256;2023-08-24T04:57:03;100707.22;;;18.45;49.03
62055;BME280;48653;51.742;-1.256;2023-08-24T04:59:26;100709.22;;;18.72;48.44
62055;BME280;48653;51.742;-1.256;2023-08-24T05:01:51;100714.26;;;18.78;49.29
62055;BME280;48653;51.742;-1.256;2023-08-24T05:04:16;100709.23;;;18.68;50.06
62055;BME280;48653;51.742;-1.256;2023-08-24T05:06:42;100689.11;;;18.85;50.42
62055;BME280;48653;51.742;-1.256;2023-08-24T05:09:07;100675.17;;;18.44;49.43
62055;BME280;48653;51.742;-1.256;2023-08-24T05:11:32;100674.24;;;19.21;49.28
62055;BME280;48653;51.742;-1.256;2023-08-24T05:13:57;100681.42;;;18.72;50.16
62055;BME280;48653;51.742;-1.256;2023-08-24T05:16:22;100692.52;;;18.64;50.24
62055;BME280;48653;51.742;-1.256;2023-08-24T05:18:47;100708.26;;;18.85;50.60
62055;BME280;48653;51.742;-1.256;2023-08-24T05:21:13;100704.85;;;18.62;51.30
62055;BME280;48653;51.742;-1.256;2023-08-24T05:23:38;100701.50;;;18.91;50.69
62055;BME280;48653;51.742;-1.256;2023-08-24T05:26:03;100705.22;;;18.65;50.60
62055;BME280;48653;51.742;-1.256;2023-08-24T05:28:29;100706.94;;;18.47;50.34
62055;BME280;48653;51.742;-1.256;2023-08-24T05:30:54;100714.39;;;18.64;50.52
62055;BME280;48653;51.742;-1.256;2023-08-24T05:33:20;100736.25;;;18.98;50.25
62055;BME280;48653;51.742;-1.256;2023-08-24T05:35:45;100740.01;;;18.82;50.51
62055;BME280;48653;51.742;-1.256;2023-08-24T05:38:10;100732.80;;;19.14;50.05
62055;BME280;48653;51.742;-1.256;2023-08-24T05:40:36;100718.99;;;18.30;51.53
62055;BME280;48653;51.742;-1.256;2023-08-24T05:43:00;100715.43;;;18.28;51.45
62055;BME280;48653;51.742;-1.256;2023-08-24T05:45:25;100715.12;;;18.39;50.88
62055;BME280;48653;51.742;-1.256;2023-08-24T05:47:50;100713.96;;;18.43;51.05
62055;BME280;48653;51.742;-1.256;2023-08-24T05:50:16;100718.25;;;18.89;50.64
62055;BME280;48653;51.742;-1.256;2023-08-24T05:52:40;100712.68;;;18.69;50.48
62055;BME280;48653;51.742;-1.256;2023-08-24T05:55:06;100709.26;;;18.91;50.38
62055;BME280;48653;51.742;-1.256;2023-08-24T05:57:30;100708.21;;;18.74;50.22
62055;BME280;48653;51.742;-1.256;2023-08-24T06:02:21;100698.89;;;18.84;50.18
62055;BME280;48653;51.742;-1.256;2023-08-24T06:09:46;100704.44;;;19.02;50.60
62055;BME280;48653;51.742;-1.256;2023-08-24T06:19:17;100693.02;;;19.52;49.48
62055;BME280;48653;51.742;-1.256;2023-08-24T06:21:44;100694.72;;;19.12;50.23
62055;BME280;48653;51.742;-1.256;2023-08-24T06:26:33;100688.29;;;19.02;49.81
62055;BME280;48653;51.742;-1.256;2023-08-24T06:28:58;100690.07;;;18.87;50.34
62055;BME280;48653;51.742;-1.256;2023-08-24T06:31:23;100684.70;;;19.12;49.06
62055;BME280;48653;51.742;-1.256;2023-08-24T06:33:49;100662.39;;;19.53;48.83
62055;BME280;48653;51.742;-1.256;2023-08-24T06:36:13;100657.13;;;18.54;51.30
62055;BME280;48653;51.742;-1.256;2023-08-24T06:38:38;100646.60;;;19.07;50.30
62055;BME280;48653;51.742;-1.256;2023-08-24T06:41:03;100643.48;;;19.06;50.62
62055;BME280;48653;51.742;-1.256;2023-08-24T06:43:29;100656.52;;;19.20;50.47
62055;BME280;48653;51.742;-1.256;2023-08-24T06:45:55;100668.34;;;19.32;50.98
62055;BME280;48653;51.742;-1.256;2023-08-24T06:48:19;100674.63;;;19.63;50.37
62055;BME280;48653;51.742;-1.256;2023-08-24T06:50:44;100667.02;;;19.50;50.27
62055;BME280;48653;51.742;-1.256;2023-08-24T06:53:09;100660.17;;;19.22;50.21
62055;BME280;48653;51.742;-1.256;2023-08-24T06:55:34;100645.11;;;19.50;49.68
62055;BME280;48653;51.742;-1.256;2023-08-24T06:58:00;100633.49;;;19.96;48.98
62055;BME280;48653;51.742;-1.256;2023-08-24T07:00:25;100634.08;;;19.29;50.72
62055;BME280;48653;51.742;-1.256;2023-08-24T07:02:50;100637.53;;;19.51;50.99
62055;BME280;48653;51.742;-1.256;2023-08-24T07:05:16;100637.89;;;19.73;50.43
62055;BME280;48653;51.742;-1.256;2023-08-24T07:07:41;100639.86;;;19.96;50.21
62055;BME280;48653;51.742;-1.256;2023-08-24T07:10:07;100633.68;;;19.84;49.72
62055;BME280;48653;51.742;-1.256;2023-08-24T07:12:35;100614.99;;;20.14;49.82
62055;BME280;48653;51.742;-1.256;2023-08-24T07:14:57;100598.10;;;19.81;48.87
62055;BME280;48653;51.742;-1.256;2023-08-24T07:17:22;100605.33;;;20.52;48.06
62055;BME280;48653;51.742;-1.256;2023-08-24T07:19:47;100616.23;;;20.41;48.62
62055;BME280;48653;51.742;-1.256;2023-08-24T07:22:13;100607.70;;;20.34;48.05
62055;BME280;48653;51.742;-1.256;2023-08-24T07:24:37;100604.32;;;20.40;48.26
62055;BME280;48653;51.742;-1.256;2023-08-24T07:27:02;100598.20;;;20.60;47.38
62055;BME280;48653;51.742;-1.256;2023-08-24T07:29:28;100606.85;;;20.60;48.28
62055;BME280;48653;51.742;-1.256;2023-08-24T07:31:52;100622.63;;;20.21;49.55
62055;BME280;48653;51.742;-1.256;2023-08-24T07:34:18;100615.41;;;20.20;48.99
62055;BME280;48653;51.742;-1.256;2023-08-24T07:36:43;100586.13;;;20.23;48.32
62055;BME280;48653;51.742;-1.256;2023-08-24T07:39:07;100582.71;;;19.34;51.49
62055;BME280;48653;51.742;-1.256;2023-08-24T07:41:33;100575.26;;;18.73;53.13
62055;BME280;48653;51.742;-1.256;2023-08-24T07:43:58;100572.44;;;19.41;52.07
62055;BME280;48653;51.742;-1.256;2023-08-24T07:46:23;100569.98;;;20.25;49.89
62055;BME280;48653;51.742;-1.256;2023-08-24T07:48:48;100564.82;;;20.16;50.60
62055;BME280;48653;51.742;-1.256;2023-08-24T07:51:13;100580.17;;;20.35;50.62
62055;BME280;48653;51.742;-1.256;2023-08-24T07:53:39;100570.08;;;20.37;49.84
62055;BME280;48653;51.742;-1.256;2023-08-24T07:56:04;100562.40;;;20.86;48.88
62055;BME280;48653;51.742;-1.256;2023-08-24T07:58:28;100559.23;;;20.45;49.31
62055;BME280;48653;51.742;-1.256;2023-08-24T08:00:54;100568.39;;;20.33;49.47
62055;BME280;48653;51.742;-1.256;2023-08-24T08:03:19;100564.20;;;20.49;49.60
62055;BME280;48653;51.742;-1.256;2023-08-24T08:05:45;100555.74;;;20.34;49.33
62055;BME280;48653;51.742;-1.256;2023-08-24T08:08:10;100530.81;;;19.98;50.04
62055;BME280;48653;51.742;-1.256;2023-08-24T08:10:35;100511.75;;;20.51;49.62
62055;BME280;48653;51.742;-1.256;2023-08-24T08:13:01;100510.79;;;20.25;50.44
62055;BME280;48653;51.742;-1.256;2023-08-24T08:15:27;100513.17;;;20.93;49.35
62055;BME280;48653;51.742;-1.256;2023-08-24T08:17:52;100558.59;;;21.13;49.53
62055;BME280;48653;51.742;-1.256;2023-08-24T08:20:17;100581.88;;;20.93;49.36
62055;BME280;48653;51.742;-1.256;2023-08-24T08:22:42;100578.31;;;21.17;48.39
62055;BME280;48653;51.742;-1.256;2023-08-24T08:25:08;100561.81;;;21.14;48.70
62055;BME280;48653;51.742;-1.256;2023-08-24T08:27:33;100551.65;;;21.61;46.97
62055;BME280;48653;51.742;-1.256;2023-08-24T08:29:59;100537.15;;;21.88;47.08
62055;BME280;48653;51.742;-1.256;2023-08-24T08:32:24;100544.16;;;22.37;45.51
62055;BME280;48653;51.742;-1.256;2023-08-24T08:34:49;100540.90;;;21.98;45.74
62055;BME280;48653;51.742;-1.256;2023-08-24T08:37:14;100549.32;;;21.61;46.70
62055;BME280;48653;51.742;-1.256;2023-08-24T08:39:40;100550.95;;;21.60;46.45
62055;BME280;48653;51.742;-1.256;2023-08-24T08:42:11;100545.09;;;21.51;46.56
62055;BME280;48653;51.742;-1.256;2023-08-24T08:44:31;100548.26;;;21.62;45.90
62055;BME280;48653;51.742;-1.256;2023-08-24T08:46:57;100562.86;;;22.26;45.74
62055;BME280;48653;51.742;-1.256;2023-08-24T08:49:21;100568.07;;;22.15;45.70
62055;BME280;48653;51.742;-1.256;2023-08-24T08:51:47;100571.13;;;22.26;46.21
62055;BME280;48653;51.742;-1.256;2023-08-24T08:54:17;100570.07;;;22.42;45.25
62055;BME280;48653;51.742;-1.256;2023-08-24T08:56:37;100582.49;;;22.32;46.37
62055;BME280;48653;51.742;-1.256;2023-08-24T08:59:04;100590.67;;;22.72;46.42
62055;BME280;48653;51.742;-1.256;2023-08-24T09:01:28;100594.34;;;22.81;45.37
62055;BME280;48653;51.742;-1.256;2023-08-24T09:03:52;100591.19;;;23.10;45.24
62055;BME280;48653;51.742;-1.256;2023-08-24T09:06:18;100597.12;;;23.42;44.05
62055;BME280;48653;51.742;-1.256;2023-08-24T09:08:42;100590.60;;;23.82;43.19
62055;BME280;48653;51.742;-1.256;2023-08-24T09:11:08;100586.21;;;22.37;45.09
62055;BME280;48653;51.742;-1.256;2023-08-24T09:13:33;100582.06;;;23.24;44.56
62055;BME280;48653;51.742;-1.256;2023-08-24T09:16:03;100578.57;;;23.97;43.09
62055;BME280;48653;51.742;-1.256;2023-08-24T09:18:34;100569.78;;;23.84;42.56
62055;BME280;48653;51.742;-1.256;2023-08-24T09:20:49;100558.91;;;24.58;42.33
62055;BME280;48653;51.742;-1.256;2023-08-24T09:25:45;100565.49;;;25.76;40.45
62055;BME280;48653;51.742;-1.256;2023-08-24T09:28:04;100569.41;;;25.90;39.15
62055;BME280;48653;51.742;-1.256;2023-08-24T09:30:30;100564.88;;;25.21;39.63
62055;BME280;48653;51.742;-1.256;2023-08-24T09:32:54;100557.62;;;26.75;38.37
62055;BME280;48653;51.742;-1.256;2023-08-24T09:35:21;100556.18;;;27.03;37.19
62055;BME280;48653;51.742;-1.256;2023-08-24T09:37:44;100557.58;;;27.67;36.82
62055;BME280;48653;51.742;-1.256;2023-08-24T09:40:10;100550.10;;;25.80;38.84
62055;BME280;48653;51.742;-1.256;2023-08-24T09:42:39;100555.23;;;25.85;40.12
62055;BME280;48653;51.742;-1.256;2023-08-24T09:45:03;100563.95;;;27.31;38.33
62055;BME280;48653;51.742;-1.256;2023-08-24T09:47:25;100572.79;;;27.46;37.58
62055;BME280;48653;51.742;-1.256;2023-08-24T09:49:51;100576.62;;;26.98;37.41
62055;BME280;48653;51.742;-1.256;2023-08-24T09:52:16;100574.22;;;28.27;36.30
62055;BME280;48653;51.742;-1.256;2023-08-24T09:54:42;100564.67;;;28.34;35.26
62055;BME280;48653;51.742;-1.256;2023-08-24T09:57:06;100554.96;;;28.89;34.92
62055;BME280;48653;51.742;-1.256;2023-08-24T09:59:32;100543.47;;;29.56;33.56
62055;BME280;48653;51.742;-1.256;2023-08-24T10:04:29;100551.49;;;30.62;30.04
62055;BME280;48653;51.742;-1.256;2023-08-24T10:06:49;100560.59;;;30.67;29.20
62055;BME280;48653;51.742;-1.256;2023-08-24T10:09:18;100573.66;;;30.28;27.99
62055;BME280;48653;51.742;-1.256;2023-08-24T10:11:42;100572.48;;;31.19;28.05
62055;BME280;48653;51.742;-1.256;2023-08-24T10:14:07;100569.67;;;31.41;28.88
62055;BME280;48653;51.742;-1.256;2023-08-24T10:16:27;100568.93;;;31.41;27.22
62055;BME280;48653;51.742;-1.256;2023-08-24T10:18:52;100571.80;;;32.39;27.27
62055;BME280;48653;51.742;-1.256;2023-08-24T10:21:17;100565.20;;;32.12;26.61
62055;BME280;48653;51.742;-1.256;2023-08-24T10:23:42;100567.72;;;32.05;26.26
62055;BME280;48653;51.742;-1.256;2023-08-24T10:26:07;100570.78;;;32.60;26.36
62055;BME280;48653;51.742;-1.256;2023-08-24T10:28:32;100562.40;;;33.00;26.05
62055;BME280;48653;51.742;-1.256;2023-08-24T10:30:58;100566.79;;;30.64;26.94
62055;BME280;48653;51.742;-1.256;2023-08-24T10:33:22;100563.73;;;32.40;27.98
62055;BME280;48653;51.742;-1.256;2023-08-24T10:35:48;100553.29;;;32.71;27.47
62055;BME280;48653;51.742;-1.256;2023-08-24T10:38:23;100550.42;;;32.67;27.80
62055;BME280;48653;51.742;-1.256;2023-08-24T10:40:38;100547.71;;;33.08;26.93
62055;BME280;48653;51.742;-1.256;2023-08-24T10:43:03;100547.57;;;32.07;27.74
62055;BME280;48653;51.742;-1.256;2023-08-24T10:47:52;100552.99;;;31.75;27.58
62055;BME280;48653;51.742;-1.256;2023-08-24T10:50:18;100558.33;;;32.18;28.31
62055;BME280;48653;51.742;-1.256;2023-08-24T10:52:43;100558.58;;;32.18;28.06
62055;BME280;48653;51.742;-1.256;2023-08-24T10:55:23;100553.06;;;32.08;27.91
62055;BME280;48653;51.742;-1.256;2023-08-24T10:57:38;100551.35;;;32.28;27.30
62055;BME280;48653;51.742;-1.256;2023-08-24T11:00:02;100545.35;;;32.60;27.76
62055;BME280;48653;51.742;-1.256;2023-08-24T11:02:24;100540.98;;;32.58;26.66
62055;BME280;48653;51.742;-1.256;2023-08-24T11:05:05;100539.70;;;32.76;27.99
62055;BME280;48653;51.742;-1.256;2023-08-24T11:07:16;100533.90;;;32.91;28.28
62055;BME280;48653;51.742;-1.256;2023-08-24T11:09:46;100529.89;;;34.02;26.33
62055;BME280;48653;51.742;-1.256;2023-08-24T11:12:04;100530.62;;;33.05;26.52
62055;BME280;48653;51.742;-1.256;2023-08-24T11:14:30;100526.49;;;32.62;27.56
62055;BME280;48653;51.742;-1.256;2023-08-24T11:16:57;100531.82;;;32.21;26.97
62055;BME280;48653;51.742;-1.256;2023-08-24T11:19:19;100521.23;;;31.91;27.09
62055;BME280;48653;51.742;-1.256;2023-08-24T11:21:46;100508.90;;;32.86;26.21
62055;BME280;48653;51.742;-1.256;2023-08-24T11:24:12;100506.31;;;32.85;27.38
62055;BME280;48653;51.742;-1.256;2023-08-24T11:26:41;100506.38;;;31.87;26.98
62055;BME280;48653;51.742;-1.256;2023-08-24T11:29:04;100508.90;;;32.27;26.99
62055;BME280;48653;51.742;-1.256;2023-08-24T11:31:25;100504.72;;;32.46;28.33
62055;BME280;48653;51.742;-1.256;2023-08-24T11:33:54;100496.88;;;31.88;26.84
62055;BME280;48653;51.742;-1.256;2023-08-24T11:36:15;100499.30;;;31.70;28.25
62055;BME280;48653;51.742;-1.256;2023-08-24T11:38:42;100501.65;;;32.75;27.80
62055;BME280;48653;51.742;-1.256;2023-08-24T11:41:11;100500.00;;;31.94;27.08
62055;BME280;48653;51.742;-1.256;2023-08-24T11:43:30;100502.02;;;31.28;28.94
62055;BME280;48653;51.742;-1.256;2023-08-24T11:45:55;100500.27;;;31.39;29.55
62055;BME280;48653;51.742;-1.256;2023-08-24T11:48:24;100497.22;;;31.76;29.78
62055;BME280;48653;51.742;-1.256;2023-08-24T11:50:45;100485.41;;;31.89;29.79
62055;BME280;48653;51.742;-1.256;2023-08-24T11:53:10;100483.72;;;32.53;27.32
62055;BME280;48653;51.742;-1.256;2023-08-24T11:55:39;100477.97;;;31.91;27.37
62055;BME280;48653;51.742;-1.256;2023-08-24T11:58:00;100470.80;;;31.56;28.21
62055;BME280;48653;51.742;-1.256;2023-08-24T12:00:26;100462.78;;;31.51;29.49
62055;BME280;48653;51.742;-1.256;2023-08-24T12:02:51;100456.22;;;31.18;28.03
62055;BME280;48653;51.742;-1.256;2023-08-24T12:05:21;100454.58;;;31.91;28.75
62055;BME280;48653;51.742;-1.256;2023-08-24T12:07:41;100452.58;;;31.80;27.82
62055;BME280;48653;51.742;-1.256;2023-08-24T12:10:07;100445.47;;;32.49;27.88
62055;BME280;48653;51.742;-1.256;2023-08-24T12:12:31;100440.86;;;31.47;27.39
62055;BME280;48653;51.742;-1.256;2023-08-24T12:14:56;100441.54;;;31.25;28.49
62055;BME280;48653;51.742;-1.256;2023-08-24T12:17:21;100439.35;;;32.10;27.43
62055;BME280;48653;51.742;-1.256;2023-08-24T12:22:13;100442.79;;;31.93;28.46
62055;BME280;48653;51.742;-1.256;2023-08-24T12:24:36;100448.10;;;31.98;27.18
62055;BME280;48653;51.742;-1.256;2023-08-24T12:27:02;100446.56;;;31.92;26.77
62055;BME280;48653;51.742;-1.256;2023-08-24T12:29:27;100438.48;;;32.36;27.68
62055;BME280;48653;51.742;-1.256;2023-08-24T12:31:56;100436.13;;;32.56;27.34
62055;BME280;48653;51.742;-1.256;2023-08-24T12:34:18;100437.57;;;31.69;26.81
62055;BME280;48653;51.742;-1.256;2023-08-24T12:36:42;100438.06;;;32.78;26.87
62055;BME280;48653;51.742;-1.256;2023-08-24T12:39:07;100439.17;;;31.73;27.35
62055;BME280;48653;51.742;-1.256;2023-08-24T12:41:32;100436.50;;;31.05;27.83
62055;BME280;48653;51.742;-1.256;2023-08-24T12:43:57;100426.09;;;30.96;27.90
62055;BME280;48653;51.742;-1.256;2023-08-24T12:46:22;100423.83;;;31.09;27.34
62055;BME280;48653;51.742;-1.256;2023-08-24T12:48:47;100421.25;;;30.85;28.02
62055;BME280;48653;51.742;-1.256;2023-08-24T12:51:12;100408.95;;;32.42;27.62
62055;BME280;48653;51.742;-1.256;2023-08-24T12:53:37;100408.02;;;32.37;26.18
62055;BME280;48653;51.742;-1.256;2023-08-24T12:56:03;100404.81;;;32.33;26.00
62055;BME280;48653;51.742;-1.256;2023-08-24T12:58:28;100400.09;;;32.58;25.34
62055;BME280;48653;51.742;-1.256;2023-08-24T13:00:52;100398.68;;;31.78;27.26